Tropical Cyclones
[Index]
Main Index Home Page Stock Weather Photos Extreme Storms Discussion Storm News and Storm Chasing Reports Tropical Cyclones / Hurricanes / Typhoons Weather Data and Links Wild Fires / Bushfires Weather Observation Techniques Weather Picture Catalogue Tornado Pictures and Reports Stock Video Footage and DVDs for sale
Season 2004-2005 Tropical Cyclone VIVIENNE Track Map
Season 2004-2005 Summaries: [BoM-AU] [JTWC-AU] [JTWC-SIO] [JTWC-SPAC] [JTWC-SH]
<<- Previous TC | JTWC 2004-2005 Season | Next TC ->>

click for intensity scale information  Lat/long Grid: Show Hide

 Date Labels: Show Hide

Joint Typhoon Warning Centre Cyclone Data

Name: VIVIENNE

04 Feb 2005 00:00 UTC to 08 Feb 2005 12:00 UTC

    date/time    lat    long     hPa   cat  kts
2005-02-04 00   14.7   117.6    1006         15          
2005-02-04 06   15.0   117.3    1006         15          
2005-02-04 12   15.2   117.2    1006         15          
2005-02-04 18   15.4   117.2    1002         20          
2005-02-05 00   15.5   117.2    1002         25          
2005-02-05 06   15.6   117.1    1002         25          
2005-02-05 12   15.8   116.9    1002         25          
2005-02-05 18   15.9   116.6    1000         30          
2005-02-06 00   16.0   116.5    1000         30          
2005-02-06 06   16.2   116.4    1000         30          
2005-02-06 12   16.3   116.4    1000         30          
2005-02-06 18   16.4   116.3    1000         30          
2005-02-07 00   16.4   116.2     997         35          
2005-02-07 06   16.4   116.1     997         35          
2005-02-07 12   16.4   116.0     997         35          
2005-02-07 18   16.3   115.8     997         35          
2005-02-08 00   16.2   115.7     997         35          
2005-02-08 06   16.0   115.7     997         35          
2005-02-08 12   15.9   115.8    1000         30          
Winds are 1-min average.

Tropical cyclone tracks developed by Michael Bath using data from the Joint Typhoon Warning Centre Best Tracks and Google Maps.


[Australian Severe Weather index] [Copyright Notice] [Email Contacts] [Search This Site] [Privacy Policy]
Document: tropical_cyclone_vivienne.htm Updated: 28 June 2017